Time;durP1;ratioP1;P1;durP2;ratioP2;P2;SDS_P1;SDS_P2;PMS_P1;PMS_P2;Temp;Humidity;BMP_temperature;BMP_pressure;BME280_temperature;BME280_humidity;BME280_pressure;Samples;Min_cycle;Max_cycle;Signal;HPM_P1;HPM_P2
2022/11/26 00:01:15;;;;;;;117.18;34.33;;;4.90;99.90;;;;;;5062633;28;20040;-56
2022/11/26 00:03:41;;;;;;;78.68;28.75;;;4.70;99.90;;;;;;5045153;28;20127;-58
2022/11/26 00:06:33;;;;;;;110.28;29.48;;;4.30;99.90;;;;;;5056632;28;20052;-55
2022/11/26 00:09:01;;;;;;;56.47;22.75;;;4.30;99.90;;;;;;5060914;28;20038;-57
2022/11/26 00:11:27;;;;;;;77.13;29.70;;;4.10;99.90;;;;;;5061346;28;20033;-55
2022/11/26 00:13:52;;;;;;;64.30;26.58;;;3.90;99.90;;;;;;5057155;28;20029;-57
2022/11/26 00:16:18;;;;;;;83.32;32.33;;;3.80;99.90;;;;;;5062424;28;20039;-57
2022/11/26 00:18:44;;;;;;;95.18;32.17;;;3.90;99.90;;;;;;5062013;28;20476;-56
2022/11/26 00:21:21;;;;;;;72.57;31.38;;;4.20;99.90;;;;;;5060397;28;20129;-57
2022/11/26 00:23:47;;;;;;;48.97;27.33;;;4.40;99.90;;;;;;5052399;28;20033;-57
2022/11/26 00:26:16;;;;;;;72.68;30.17;;;4.50;99.90;;;;;;5059267;28;20054;-54
2022/11/26 00:29:00;;;;;;;67.50;30.63;;;4.40;99.90;;;;;;5028596;28;20064;-57
2022/11/26 00:31:27;;;;;;;78.43;34.25;;;4.30;99.90;;;;;;5015751;28;20432;-55
2022/11/26 00:33:53;;;;;;;62.47;32.00;;;4.10;99.90;;;;;;5022399;28;20478;-55
2022/11/26 00:36:32;;;;;;;63.08;31.35;;;4.10;99.90;;;;;;5018575;28;20036;-57
2022/11/26 00:39:06;;;;;;;38.22;26.13;;;4.30;99.90;;;;;;5017642;28;20034;-57
2022/11/26 00:41:37;;;;;;;37.55;26.77;;;4.40;99.90;;;;;;5038911;28;20116;-57
2022/11/26 00:44:03;;;;;;;46.65;29.10;;;4.60;99.90;;;;;;5024420;28;20083;-58
2022/11/26 00:46:29;;;;;;;40.13;26.65;;;4.70;99.90;;;;;;5015715;28;20469;-57
2022/11/26 00:48:55;;;;;;;55.17;26.63;;;5.10;99.90;;;;;;5022486;28;20056;-56
2022/11/26 00:51:27;;;;;;;31.42;22.80;;;5.60;99.90;;;;;;5024223;28;20055;-56
2022/11/26 00:53:55;;;;;;;32.50;24.55;;;5.30;99.90;;;;;;5024372;28;20030;-56
2022/11/26 00:56:22;;;;;;;30.80;22.23;;;5.30;99.90;;;;;;5014601;28;20114;-56
2022/11/26 00:58:49;;;;;;;29.15;22.08;;;5.30;99.90;;;;;;5022812;28;20048;-57
2022/11/26 01:01:23;;;;;;;32.70;23.73;;;5.30;99.90;;;;;;5024224;28;20061;-58
2022/11/26 01:03:49;;;;;;;31.20;23.38;;;5.20;99.90;;;;;;5019478;28;20463;-55
2022/11/26 01:06:22;;;;;;;43.55;23.67;;;5.30;99.90;;;;;;5022034;28;20045;-55
2022/11/26 01:08:49;;;;;;;29.50;20.98;;;5.20;99.90;;;;;;5015180;28;20703;-58
2022/11/26 01:11:17;;;;;;;29.45;22.02;;;5.20;99.90;;;;;;5022033;28;20068;-57
2022/11/26 01:13:44;;;;;;;35.88;23.75;;;5.30;99.90;;;;;;5024183;28;20030;-58
2022/11/26 01:16:26;;;;;;;54.15;24.98;;;5.50;99.90;;;;;;5023743;28;20159;-57
2022/11/26 01:18:54;;;;;;;37.10;23.65;;;5.30;99.90;;;;;;5023971;28;20108;-57
2022/11/26 01:21:21;;;;;;;34.58;24.23;;;5.40;99.90;;;;;;5013250;28;20032;-55
2022/11/26 01:23:47;;;;;;;30.70;22.27;;;5.50;99.90;;;;;;5028961;28;20026;-57
2022/11/26 01:26:18;;;;;;;30.65;22.10;;;5.50;99.90;;;;;;5014486;28;20548;-58
2022/11/26 01:28:44;;;;;;;27.40;20.40;;;5.60;99.90;;;;;;5022008;28;20036;-57
2022/11/26 01:31:22;;;;;;;31.00;21.45;;;5.60;99.90;;;;;;5021893;28;20079;-55
2022/11/26 01:33:48;;;;;;;47.75;23.85;;;5.60;99.90;;;;;;5024057;28;20566;-58
2022/11/26 01:36:26;;;;;;;41.67;23.10;;;5.30;99.90;;;;;;5021867;28;20489;-59
2022/11/26 01:38:53;;;;;;;41.17;25.10;;;5.10;99.90;;;;;;5021842;28;20026;-56
2022/11/26 01:41:44;;;;;;;55.28;27.10;;;4.90;99.90;;;;;;5029210;28;20116;-57
2022/11/26 01:44:31;;;;;;;66.43;29.85;;;4.80;99.90;;;;;;5020618;28;20034;-56
2022/11/26 01:46:58;;;;;;;60.95;29.92;;;4.70;99.90;;;;;;5024493;28;20109;-57
2022/11/26 01:49:28;;;;;;;46.30;26.38;;;4.50;99.90;;;;;;5027590;28;20512;-55
2022/11/26 01:52:10;;;;;;;36.75;23.45;;;4.50;99.90;;;;;;5027742;28;20036;-58
2022/11/26 01:54:41;;;;;;;44.85;24.42;;;4.60;99.90;;;;;;5027789;28;20465;-55
2022/11/26 01:57:17;;;;;;;38.70;24.15;;;4.70;99.90;;;;;;5018073;28;20397;-55
2022/11/26 01:59:51;;;;;;;45.38;25.25;;;4.80;99.90;;;;;;5025723;28;20438;-57
2022/11/26 02:02:18;;;;;;;33.65;24.80;;;4.80;99.90;;;;;;5020666;28;20413;-56
2022/11/26 02:05:19;;;;;;;36.38;24.58;;;5.00;99.90;;;;;;5025442;28;20128;-55
2022/11/26 02:07:45;;;;;;;56.67;26.70;;;5.00;99.90;;;;;;5047744;28;20116;-58
2022/11/26 02:10:12;;;;;;;55.90;27.08;;;4.90;99.90;;;;;;5008888;28;22020;-55
2022/11/26 02:12:39;;;;;;;50.05;25.73;;;4.20;99.90;;;;;;5043942;28;20034;-56
2022/11/26 02:15:05;;;;;;;61.40;25.83;;;3.90;99.90;;;;;;5045636;28;20513;-56
2022/11/26 02:18:06;;;;;;;73.63;28.48;;;3.60;99.90;;;;;;5018274;28;20101;-55
2022/11/26 02:20:51;;;;;;;72.43;27.63;;;3.20;99.90;;;;;;5047096;28;20037;-58
2022/11/26 02:23:47;;;;;;;76.40;29.40;;;3.20;99.90;;;;;;5039436;28;20068;-55
2022/11/26 02:26:12;;;;;;;104.10;32.38;;;3.20;99.90;;;;;;5038416;28;20512;-57
2022/11/26 02:28:56;;;;;;;111.43;31.55;;;3.00;99.90;;;;;;5047162;28;20033;-56
2022/11/26 02:31:56;;;;;;;109.35;33.88;;;3.00;99.90;;;;;;5051424;28;20124;-55
2022/11/26 02:34:39;;;;;;;96.10;32.38;;;3.00;99.90;;;;;;5042858;28;20033;-58
2022/11/26 02:37:09;;;;;;;113.78;36.03;;;3.00;99.90;;;;;;5043725;28;20100;-58
2022/11/26 02:39:35;;;;;;;106.63;37.90;;;3.00;99.90;;;;;;5044599;28;20042;-55
2022/11/26 02:42:03;;;;;;;111.28;35.92;;;3.00;99.90;;;;;;5044278;28;20550;-56
2022/11/26 02:44:44;;;;;;;124.47;38.03;;;3.00;99.90;;;;;;5026001;28;20485;-56
2022/11/26 02:47:13;;;;;;;116.82;35.42;;;2.90;99.90;;;;;;5024090;28;20025;-56
2022/11/26 02:49:41;;;;;;;130.60;38.08;;;2.90;99.90;;;;;;5024038;28;20021;-57
2022/11/26 02:52:08;;;;;;;68.45;33.78;;;3.00;99.90;;;;;;5029524;28;20103;-55
2022/11/26 02:54:36;;;;;;;61.05;33.47;;;3.20;99.90;;;;;;5022056;28;20030;-58
2022/11/26 02:57:05;;;;;;;59.90;32.45;;;3.50;99.90;;;;;;5024097;28;20160;-55
2022/11/26 02:59:32;;;;;;;66.53;34.10;;;3.70;99.90;;;;;;5026250;28;20033;-58
2022/11/26 03:02:14;;;;;;;64.10;31.17;;;3.70;99.90;;;;;;5017539;28;20540;-56
2022/11/26 03:04:44;;;;;;;50.85;30.30;;;3.70;99.90;;;;;;5025362;28;20124;-58
2022/11/26 03:07:13;;;;;;;56.30;28.48;;;3.80;99.90;;;;;;5023839;28;20064;-58
2022/11/26 03:09:57;;;;;;;52.95;30.58;;;3.80;99.90;;;;;;5025968;28;20068;-56
2022/11/26 03:12:24;;;;;;;46.10;29.35;;;;;;;;;;5026083;28;20114;-56
2022/11/26 03:14:50;;;;;;;47.50;27.35;;;3.90;99.90;;;;;;5025527;28;20053;-57
2022/11/26 03:17:17;;;;;;;61.38;28.63;;;4.10;99.90;;;;;;5018907;28;20033;-57
2022/11/26 03:19:43;;;;;;;71.32;28.35;;;3.90;99.90;;;;;;5024721;28;20029;-56
2022/11/26 03:22:09;;;;;;;84.75;29.95;;;3.80;99.90;;;;;;5023590;28;20022;-57
2022/11/26 03:24:35;;;;;;;74.00;31.02;;;3.60;99.90;;;;;;5025751;28;20040;-57
2022/11/26 03:27:00;;;;;;;86.60;30.20;;;3.70;99.90;;;;;;5023904;28;20083;-55
2022/11/26 03:29:26;;;;;;;120.65;33.47;;;3.70;99.90;;;;;;5018994;28;20057;-56
2022/11/26 03:31:52;;;;;;;83.88;32.40;;;3.90;99.90;;;;;;5023488;28;20040;-57
2022/11/26 03:34:18;;;;;;;110.18;31.15;;;4.10;99.90;;;;;;5023311;28;20030;-56
2022/11/26 03:36:44;;;;;;;86.13;31.92;;;4.40;99.90;;;;;;5023756;28;20045;-58
2022/11/26 03:39:10;;;;;;;98.68;32.40;;;4.50;99.90;;;;;;5019828;28;20029;-58
2022/11/26 03:41:36;;;;;;;137.68;32.65;;;4.60;99.90;;;;;;5024419;28;20481;-56
2022/11/26 03:44:02;;;;;;;106.50;32.28;;;4.50;99.90;;;;;;5025307;28;20389;-57
2022/11/26 03:46:28;;;;;;;113.05;31.08;;;4.60;99.90;;;;;;5025506;28;20468;-55
2022/11/26 03:48:53;;;;;;;124.28;31.60;;;4.60;99.90;;;;;;5020289;28;20025;-56
2022/11/26 03:51:19;;;;;;;78.47;30.05;;;4.60;99.90;;;;;;5023195;28;20076;-59
2022/11/26 03:53:46;;;;;;;76.20;29.75;;;4.60;99.90;;;;;;5022007;28;20026;-55
2022/11/26 03:56:12;;;;;;;81.20;31.05;;;4.60;99.90;;;;;;5022437;28;20120;-57
2022/11/26 03:58:37;;;;;;;59.00;26.30;;;4.60;99.90;;;;;;5027491;28;20435;-56
2022/11/26 04:01:08;;;;;;;73.63;26.77;;;4.80;99.90;;;;;;5014036;28;20025;-56
2022/11/26 04:03:34;;;;;;;98.43;29.70;;;;;;;;;;5023092;28;20029;-55
2022/11/26 04:06:00;;;;;;;71.22;27.50;;;;;;;;;;5027523;28;20094;-57
2022/11/26 04:08:27;;;;;;;79.65;28.40;;;;;;;;;;5022874;28;20036;-57
2022/11/26 04:10:52;;;;;;;59.15;27.58;;;4.80;99.90;;;;;;5016143;28;20032;-57
2022/11/26 04:13:18;;;;;;;65.18;30.17;;;4.90;99.90;;;;;;5025196;28;20025;-56
2022/11/26 04:15:44;;;;;;;69.32;26.55;;;4.80;99.90;;;;;;5024133;28;20072;-55
2022/11/26 04:18:10;;;;;;;86.38;30.92;;;4.90;99.90;;;;;;5022733;28;20060;-58
2022/11/26 04:20:36;;;;;;;63.58;27.27;;;4.90;99.90;;;;;;5022876;28;20026;-55
2022/11/26 04:23:01;;;;;;;62.10;26.20;;;4.80;99.90;;;;;;5022929;28;20030;-57
2022/11/26 04:25:27;;;;;;;80.07;28.08;;;4.80;99.90;;;;;;5020192;28;20065;-56
2022/11/26 04:27:53;;;;;;;111.40;26.42;;;4.80;99.90;;;;;;5022559;28;20492;-58
2022/11/26 04:30:19;;;;;;;97.28;28.67;;;4.70;99.90;;;;;;5018460;28;20034;-56
2022/11/26 04:32:44;;;;;;;73.05;26.88;;;4.70;99.90;;;;;;5022427;28;20028;-55
2022/11/26 04:35:10;;;;;;;63.45;26.98;;;4.30;99.90;;;;;;5016920;28;20461;-59
2022/11/26 04:37:36;;;;;;;98.75;30.58;;;4.30;99.90;;;;;;5023828;28;20436;-58
2022/11/26 04:40:02;;;;;;;65.53;26.70;;;4.30;99.90;;;;;;5022268;28;20052;-56
2022/11/26 04:42:27;;;;;;;90.15;29.63;;;4.00;99.90;;;;;;5018697;28;20091;-57
2022/11/26 04:44:53;;;;;;;94.13;29.58;;;3.90;99.90;;;;;;5022229;28;20401;-55
2022/11/26 04:47:19;;;;;;;127.93;31.00;;;4.00;99.90;;;;;;5023525;28;20029;-56
2022/11/26 04:49:44;;;;;;;124.43;29.63;;;4.10;99.90;;;;;;5022164;28;20041;-57
2022/11/26 04:52:10;;;;;;;84.00;28.35;;;4.40;99.90;;;;;;5016264;28;20033;-57
2022/11/26 04:54:36;;;;;;;151.43;29.23;;;4.50;99.90;;;;;;5024126;28;20034;-58
2022/11/26 04:57:02;;;;;;;284.17;34.70;;;4.60;99.90;;;;;;5024572;28;20104;-55
2022/11/26 04:59:28;;;;;;;110.05;27.30;;;4.60;99.90;;;;;;5021885;28;20490;-58
2022/11/26 05:01:53;;;;;;;133.05;27.83;;;4.70;99.90;;;;;;5015732;28;20052;-58
2022/11/26 05:04:19;;;;;;;135.73;28.63;;;4.80;99.90;;;;;;5022328;28;20568;-58
2022/11/26 05:06:45;;;;;;;149.50;49.63;;;4.80;99.90;;;;;;5038020;28;20038;-56
2022/11/26 05:09:11;;;;;;;191.05;40.17;;;4.80;99.90;;;;;;5024041;28;20030;-57
2022/11/26 05:11:37;;;;;;;61.45;25.58;;;4.90;99.90;;;;;;5024265;28;20084;-57
2022/11/26 05:14:03;;;;;;;117.45;33.90;;;4.70;99.90;;;;;;5023273;28;20473;-56
2022/11/26 05:16:29;;;;;;;145.95;40.08;;;4.60;99.90;;;;;;5021965;28;20049;-57
2022/11/26 05:18:55;;;;;;;217.18;52.90;;;4.60;99.90;;;;;;5022037;28;20036;-57
2022/11/26 05:21:20;;;;;;;227.20;46.40;;;4.70;99.90;;;;;;5019312;28;20381;-56
2022/11/26 05:23:46;;;;;;;137.57;42.67;;;4.90;99.90;;;;;;5028134;28;20033;-57
2022/11/26 05:26:12;;;;;;;117.43;35.42;;;4.80;99.90;;;;;;5023210;28;20075;-58
2022/11/26 05:28:38;;;;;;;123.97;37.22;;;4.60;99.90;;;;;;5026364;28;20097;-56
2022/11/26 05:31:04;;;;;;;124.55;41.03;;;4.50;99.90;;;;;;5023836;28;20030;-58
2022/11/26 05:33:30;;;;;;;82.45;35.97;;;4.30;99.90;;;;;;5024911;28;20061;-57
2022/11/26 05:35:56;;;;;;;101.53;55.20;;;4.20;99.90;;;;;;5023794;28;20034;-58
2022/11/26 05:38:22;;;;;;;138.85;47.05;;;4.20;99.90;;;;;;5025390;28;20088;-56
2022/11/26 05:40:47;;;;;;;112.50;44.92;;;4.30;99.90;;;;;;5019959;28;20469;-55
2022/11/26 05:43:13;;;;;;;173.27;59.05;;;4.30;99.90;;;;;;5027710;28;20030;-56
2022/11/26 05:45:39;;;;;;;108.10;41.50;;;4.50;99.90;;;;;;5057430;28;20049;-58
2022/11/26 05:48:05;;;;;;;90.47;33.95;;;4.60;99.90;;;;;;5027072;28;20517;-58
2022/11/26 05:50:32;;;;;;;94.15;32.10;;;4.60;99.90;;;;;;5027755;28;20022;-58
2022/11/26 05:52:58;;;;;;;49.50;26.88;;;4.70;99.90;;;;;;5019440;28;20376;-56
2022/11/26 05:55:24;;;;;;;97.97;33.78;;;4.60;99.90;;;;;;5024965;28;20030;-58
2022/11/26 05:57:49;;;;;;;76.68;33.80;;;4.50;99.90;;;;;;5024535;28;20362;-56
2022/11/26 06:00:15;;;;;;;119.60;38.67;;;4.60;99.90;;;;;;5029006;28;20040;-55
2022/11/26 06:02:41;;;;;;;225.93;50.40;;;4.70;99.90;;;;;;5029662;28;20473;-55
2022/11/26 06:05:08;;;;;;;153.00;41.80;;;4.50;99.90;;;;;;5020029;28;20042;-58
2022/11/26 06:07:34;;;;;;;228.27;50.13;;;4.50;99.90;;;;;;5023690;28;20523;-56
2022/11/26 06:09:59;;;;;;;202.73;50.38;;;4.30;99.90;;;;;;5029346;28;20370;-58
2022/11/26 06:12:26;;;;;;;222.68;53.20;;;4.40;99.90;;;;;;5027528;28;20041;-57
2022/11/26 06:14:51;;;;;;;264.88;57.03;;;4.00;99.90;;;;;;5024893;28;20060;-58
2022/11/26 06:17:17;;;;;;;310.13;61.88;;;3.90;99.90;;;;;;5030986;28;20033;-56
2022/11/26 06:19:43;;;;;;;250.30;58.83;;;4.20;99.90;;;;;;5067918;28;20033;-57
2022/11/26 06:22:09;;;;;;;198.20;52.08;;;4.50;99.90;;;;;;5029761;28;20037;-59
2022/11/26 06:24:35;;;;;;;200.27;50.03;;;4.50;99.90;;;;;;5023998;28;20481;-56
2022/11/26 06:27:01;;;;;;;167.50;49.83;;;4.50;99.90;;;;;;5023008;28;20116;-56
2022/11/26 06:29:26;;;;;;;162.55;43.15;;;4.70;99.90;;;;;;5026751;28;20108;-56
2022/11/26 06:31:52;;;;;;;85.97;35.50;;;4.90;99.90;;;;;;5032049;28;20033;-57
2022/11/26 06:34:18;;;;;;;101.93;32.58;;;4.10;99.90;;;;;;5028631;28;20034;-57
2022/11/26 06:36:44;;;;;;;135.00;36.75;;;4.20;99.90;;;;;;5051475;28;20037;-58
2022/11/26 06:39:10;;;;;;;93.57;32.70;;;4.30;99.90;;;;;;5017829;28;20096;-58
2022/11/26 06:41:36;;;;;;;107.03;29.52;;;4.40;99.90;;;;;;5026839;28;20104;-55
2022/11/26 06:44:02;;;;;;;93.30;39.47;;;4.60;99.90;;;;;;5016151;28;20113;-56
2022/11/26 06:46:27;;;;;;;80.10;34.92;;;4.70;99.90;;;;;;5025114;28;20455;-59
2022/11/26 06:48:53;;;;;;;114.15;40.08;;;4.80;99.90;;;;;;5027639;28;20037;-56
2022/11/26 06:51:20;;;;;;;116.65;37.97;;;4.90;99.90;;;;;;5030745;28;20040;-55
2022/11/26 06:53:47;;;;;;;93.97;34.17;;;5.00;99.90;;;;;;5031920;28;20072;-57
2022/11/26 06:56:15;;;;;;;85.38;34.90;;;5.00;99.90;;;;;;5031931;28;20022;-56
2022/11/26 06:58:41;;;;;;;100.00;39.47;;;5.00;99.90;;;;;;5032275;28;20022;-57
2022/11/26 07:01:11;;;;;;;121.25;42.15;;;4.80;99.90;;;;;;5034086;28;20504;-57
2022/11/26 07:03:37;;;;;;;89.25;36.60;;;4.80;99.90;;;;;;5031425;28;20501;-59
2022/11/26 07:06:03;;;;;;;74.20;31.65;;;4.80;99.90;;;;;;5031362;28;20405;-57
2022/11/26 07:08:29;;;;;;;87.35;34.88;;;4.70;99.90;;;;;;5031405;28;20079;-56
2022/11/26 07:10:55;;;;;;;104.63;39.42;;;4.90;99.90;;;;;;5026390;28;20147;-58
2022/11/26 07:13:21;;;;;;;92.32;43.45;;;4.90;99.90;;;;;;5032293;28;20060;-57
2022/11/26 07:15:46;;;;;;;182.52;52.53;;;5.00;99.90;;;;;;5034085;28;20045;-57
2022/11/26 07:18:12;;;;;;;86.05;31.48;;;5.30;99.90;;;;;;5031555;28;20377;-56
2022/11/26 07:20:38;;;;;;;153.07;39.00;;;5.30;99.90;;;;;;5030628;28;20087;-59
2022/11/26 07:23:03;;;;;;;238.57;55.03;;;5.50;99.90;;;;;;5031469;28;20432;-57
2022/11/26 07:25:30;;;;;;;101.10;34.53;;;5.70;99.90;;;;;;5032339;28;20409;-52
2022/11/26 07:27:57;;;;;;;143.07;36.08;;;5.50;99.90;;;;;;5045025;28;20045;-50
2022/11/26 07:30:22;;;;;;;125.20;28.88;;;5.40;99.90;;;;;;5025451;28;20057;-53
2022/11/26 07:32:48;;;;;;;136.77;32.13;;;5.20;99.90;;;;;;5023785;28;20524;-53
2022/11/26 07:35:14;;;;;;;95.55;26.58;;;5.40;99.90;;;;;;5054840;28;20042;-60
2022/11/26 07:37:39;;;;;;;68.32;24.33;;;5.40;99.90;;;;;;5025174;28;20026;-60
2022/11/26 07:40:06;;;;;;;50.08;24.05;;;5.40;99.90;;;;;;5023297;28;20492;-59
2022/11/26 07:42:32;;;;;;;116.20;28.50;;;5.00;99.90;;;;;;5019956;28;20025;-60
2022/11/26 07:44:58;;;;;;;105.35;29.17;;;4.90;99.90;;;;;;5025221;28;20038;-59
2022/11/26 07:47:24;;;;;;;62.25;25.50;;;4.90;99.90;;;;;;5024475;28;20112;-57
2022/11/26 07:49:50;;;;;;;139.95;30.25;;;5.10;99.90;;;;;;5053195;28;20069;-59
2022/11/26 07:52:16;;;;;;;139.70;28.42;;;5.30;99.90;;;;;;5017505;28;20481;-59
2022/11/26 07:54:42;;;;;;;65.15;27.38;;;5.40;99.90;;;;;;5027925;28;20033;-58
2022/11/26 07:57:09;;;;;;;86.65;30.70;;;5.20;99.90;;;;;;5021882;28;20034;-59
2022/11/26 07:59:34;;;;;;;103.55;30.38;;;5.30;99.90;;;;;;5025074;28;20120;-60
2022/11/26 08:02:00;;;;;;;114.78;34.90;;;5.50;99.90;;;;;;5023356;28;20831;-58
2022/11/26 08:04:25;;;;;;;91.65;38.25;;;5.40;99.90;;;;;;5024554;28;20033;-60
2022/11/26 08:06:51;;;;;;;100.65;43.97;;;5.00;99.90;;;;;;5028318;28;20056;-60
2022/11/26 08:09:17;;;;;;;100.65;41.35;;;5.20;99.90;;;;;;5024596;28;20034;-60
2022/11/26 08:11:43;;;;;;;174.77;43.88;;;5.20;99.90;;;;;;5014499;28;20030;-59
2022/11/26 08:14:11;;;;;;;105.40;40.85;;;5.30;99.90;;;;;;5023986;28;20049;-58
2022/11/26 08:16:37;;;;;;;98.13;37.65;;;5.40;99.90;;;;;;5022476;28;20037;-58
2022/11/26 08:19:10;;;;;;;104.28;37.58;;;5.40;99.90;;;;;;5026121;28;20021;-59
2022/11/26 08:21:37;;;;;;;163.15;38.03;;;5.60;99.90;;;;;;5024142;28;20485;-58
2022/11/26 08:24:03;;;;;;;127.25;38.42;;;5.20;99.90;;;;;;5022402;28;20029;-60
2022/11/26 08:26:29;;;;;;;93.85;35.33;;;5.50;99.90;;;;;;5013919;28;20148;-59
2022/11/26 08:28:55;;;;;;;132.40;35.75;;;5.10;99.90;;;;;;5023783;28;20033;-60
2022/11/26 08:31:23;;;;;;;158.18;34.65;;;5.10;99.90;;;;;;5012847;28;20030;-58
2022/11/26 08:33:49;;;;;;;105.32;29.38;;;5.30;99.90;;;;;;5021259;28;20044;-60
2022/11/26 08:36:15;;;;;;;86.40;28.13;;;5.20;99.90;;;;;;5024402;28;20381;-60
2022/11/26 08:38:41;;;;;;;106.13;31.33;;;5.10;99.90;;;;;;5020969;28;20037;-60
2022/11/26 08:41:10;;;;;;;199.18;34.45;;;5.00;99.90;;;;;;5021045;28;20033;-60
2022/11/26 08:43:37;;;;;;;144.45;34.08;;;5.00;99.90;;;;;;5025494;28;20073;-60
2022/11/26 08:46:03;;;;;;;97.93;28.92;;;5.20;99.90;;;;;;5021233;28;20724;-58
2022/11/26 08:48:30;;;;;;;178.63;52.45;;;5.30;99.90;;;;;;5019310;28;20056;-59
2022/11/26 08:51:00;;;;;;;199.65;49.17;;;5.60;99.90;;;;;;5023050;28;20029;-57
2022/11/26 08:53:27;;;;;;;165.80;50.95;;;6.00;99.90;;;;;;5019796;28;20038;-58
2022/11/26 08:55:58;;;;;;;136.07;37.13;;;6.20;99.90;;;;;;5020946;28;20052;-57
2022/11/26 08:58:23;;;;;;;105.30;37.28;;;6.40;99.90;;;;;;5016578;28;20030;-60
2022/11/26 09:00:49;;;;;;;254.38;58.75;;;5.90;99.90;;;;;;5021936;28;20037;-57
2022/11/26 09:03:15;;;;;;;129.02;40.30;;;6.10;99.90;;;;;;5013658;28;20057;-57
2022/11/26 09:05:41;;;;;;;115.18;39.72;;;6.10;99.90;;;;;;5022936;28;20116;-67
2022/11/26 09:08:07;;;;;;;120.85;40.22;;;;;;;;;;5011463;28;20030;-62
2022/11/26 09:10:32;;;;;;;155.23;41.70;;;5.30;99.90;;;;;;5023899;28;20034;-65
2022/11/26 09:12:58;;;;;;;89.40;40.05;;;5.90;99.90;;;;;;5022581;28;20044;-68
2022/11/26 09:15:24;;;;;;;120.78;39.58;;;6.20;99.90;;;;;;5020032;28;20060;-67
2022/11/26 09:17:51;;;;;;;94.63;37.10;;;6.20;99.90;;;;;;4987053;28;20054;-68
2022/11/26 09:20:16;;;;;;;163.95;43.70;;;6.40;99.90;;;;;;5022446;28;20393;-63
2022/11/26 09:22:42;;;;;;;128.43;39.10;;;6.80;99.90;;;;;;5010930;28;20482;-65
2022/11/26 09:25:08;;;;;;;105.30;34.17;;;7.00;99.90;;;;;;5024388;28;20053;-62
2022/11/26 09:27:34;;;;;;;128.43;42.38;;;6.60;99.90;;;;;;5022096;28;20029;-67
2022/11/26 09:30:00;;;;;;;117.82;41.50;;;6.50;99.90;;;;;;5022800;28;20047;-62
2022/11/26 09:32:26;;;;;;;102.93;36.72;;;6.40;99.90;;;;;;5016438;28;20037;-66
2022/11/26 09:34:52;;;;;;;85.22;36.33;;;6.30;99.90;;;;;;5021571;28;20099;-64
2022/11/26 09:37:18;;;;;;;125.80;40.60;;;6.30;99.90;;;;;;5022547;28;20404;-66
2022/11/26 09:39:43;;;;;;;183.25;42.55;;;6.50;99.90;;;;;;5036557;28;20397;-67
2022/11/26 09:42:28;;;;;;;180.77;52.03;;;;;;;;;;5021453;28;20122;-64
2022/11/26 09:45:08;;;;;;;229.55;99.50;;;7.00;99.90;;;;;;5021388;28;20057;-67
2022/11/26 09:47:44;;;;;;;213.55;51.30;;;7.10;99.90;;;;;;5024348;28;20029;-62
2022/11/26 09:50:10;;;;;;;151.07;52.00;;;7.20;99.90;;;;;;5023653;28;20092;-65
2022/11/26 09:52:43;;;;;;;160.27;53.90;;;7.00;99.90;;;;;;5021970;28;20029;-65
2022/11/26 09:55:18;;;;;;;146.88;58.40;;;6.90;99.90;;;;;;5021822;28;20105;-67
2022/11/26 09:58:02;;;;;;;138.25;55.83;;;;;;;;;;5022491;28;20033;-63
2022/11/26 10:00:33;;;;;;;170.07;64.38;;;7.40;99.90;;;;;;5021676;28;20044;-66
2022/11/26 10:02:59;;;;;;;152.90;56.25;;;7.30;99.90;;;;;;5015111;28;20366;-65
2022/11/26 10:05:50;;;;;;;124.90;54.88;;;7.60;99.90;;;;;;5022710;28;20041;-60
2022/11/26 10:08:28;;;;;;;139.38;58.17;;;7.80;99.90;;;;;;5025077;28;20053;-65
2022/11/26 10:11:05;;;;;;;157.00;60.83;;;7.70;99.90;;;;;;5027290;28;20034;-65
2022/11/26 10:13:46;;;;;;;180.15;42.70;;;7.60;99.90;;;;;;5023469;28;20072;-61
2022/11/26 10:16:44;;;;;;;201.63;43.70;;;8.10;99.90;;;;;;5027013;28;20091;-61
2022/11/26 10:19:39;;;;;;;118.53;43.53;;;8.20;99.90;;;;;;5019836;28;20040;-66
2022/11/26 10:22:20;;;;;;;188.07;43.88;;;;;;;;;;5024872;28;20043;-63
2022/11/26 10:24:47;;;;;;;175.02;42.42;;;;;;;;;;5033010;28;20045;-67
2022/11/26 10:27:15;;;;;;;143.85;37.38;;;;;;;;;;5033102;28;20037;-62
2022/11/26 10:29:42;;;;;;;144.25;40.72;;;;;;;;;;5033589;28;20103;-60
2022/11/26 10:32:34;;;;;;;158.90;38.88;;;;;;;;;;5033177;28;20037;-63
2022/11/26 10:35:00;;;;;;;130.25;37.78;;;;;;;;;;5030096;28;21697;-59
2022/11/26 10:37:28;;;;;;;128.82;39.28;;;8.30;99.90;;;;;;5033622;28;20049;-61
2022/11/26 10:40:11;;;;;;;89.72;31.17;;;8.70;99.90;;;;;;5032951;28;20044;-62
2022/11/26 10:42:43;;;;;;;88.95;33.95;;;8.70;99.90;;;;;;5032712;28;20069;-65
2022/11/26 10:45:21;;;;;;;84.32;38.90;;;8.60;99.90;;;;;;5032517;28;20041;-64
2022/11/26 10:47:47;;;;;;;123.35;53.60;;;8.50;99.90;;;;;;5032691;28;20029;-59
2022/11/26 10:50:24;;;;;;;112.03;33.17;;;8.50;99.90;;;;;;5032602;28;20056;-62
2022/11/26 10:52:51;;;;;;;74.32;31.77;;;8.60;99.90;;;;;;5023852;28;20599;-65
2022/11/26 10:55:33;;;;;;;120.32;33.83;;;8.60;99.90;;;;;;5029328;28;20046;-64
2022/11/26 10:58:06;;;;;;;101.70;36.88;;;8.70;99.90;;;;;;5024283;28;20034;-65
2022/11/26 11:00:43;;;;;;;53.88;31.45;;;8.60;99.90;;;;;;5024413;28;20033;-61
2022/11/26 11:03:30;;;;;;;80.53;35.92;;;8.70;99.90;;;;;;5024173;28;20443;-63
2022/11/26 11:06:26;;;;;;;66.90;35.10;;;8.80;99.90;;;;;;5015297;28;20481;-62
2022/11/26 11:08:53;;;;;;;101.55;42.10;;;8.90;99.90;;;;;;5024723;28;20026;-51
2022/11/26 11:11:20;;;;;;;102.05;50.25;;;8.80;99.90;;;;;;5030239;28;20033;-53
2022/11/26 11:13:47;;;;;;;96.82;49.33;;;9.00;99.90;;;;;;5028222;28;20026;-58
2022/11/26 11:16:17;;;;;;;109.68;55.47;;;9.10;99.90;;;;;;5034943;28;20136;-61
2022/11/26 11:18:54;;;;;;;88.43;49.15;;;9.10;99.90;;;;;;5028141;28;20470;-56
2022/11/26 11:21:20;;;;;;;84.00;47.05;;;9.30;99.90;;;;;;5016685;28;20477;-56
2022/11/26 11:23:46;;;;;;;82.28;47.97;;;9.30;99.90;;;;;;5025087;28;20029;-52
2022/11/26 11:26:18;;;;;;;69.03;39.63;;;8.70;99.90;;;;;;5021929;28;20100;-52
2022/11/26 11:28:55;;;;;;;66.45;39.95;;;8.90;99.90;;;;;;5021142;28;20052;-57
2022/11/26 11:31:23;;;;;;;70.05;42.90;;;9.10;99.90;;;;;;5026631;28;20033;-59
2022/11/26 11:33:51;;;;;;;87.47;50.28;;;9.00;99.90;;;;;;5022526;28;20029;-51
2022/11/26 11:36:24;;;;;;;89.55;53.42;;;9.10;99.90;;;;;;5026177;28;20041;-47
2022/11/26 11:39:01;;;;;;;78.18;47.65;;;9.10;99.90;;;;;;5016998;28;20033;-56
2022/11/26 11:41:43;;;;;;;79.82;45.38;;;9.20;99.90;;;;;;5034177;28;20609;-53
2022/11/26 11:44:12;;;;;;;79.78;48.13;;;9.30;99.90;;;;;;5024199;28;20033;-53
2022/11/26 11:47:30;;;;;;;72.57;45.67;;;9.20;99.90;;;;;;5024366;28;20036;-55
2022/11/26 11:49:56;;;;;;;71.53;41.25;;;9.30;99.90;;;;;;5002592;28;20405;-54
2022/11/26 11:52:37;;;;;;;66.15;40.58;;;9.60;99.90;;;;;;5032533;28;20086;-56
2022/11/26 11:55:12;;;;;;;50.97;33.67;;;9.90;99.90;;;;;;5027645;28;20033;-55
2022/11/26 11:58:09;;;;;;;61.50;36.60;;;9.80;99.90;;;;;;5021496;28;20237;-52
2022/11/26 12:01:02;;;;;;;64.30;37.78;;;9.80;99.90;;;;;;5022082;28;20096;-52
2022/11/26 12:03:40;;;;;;;72.07;41.95;;;9.90;99.90;;;;;;5023610;28;20044;-54
2022/11/26 12:06:32;;;;;;;68.50;40.08;;;9.90;99.90;;;;;;5022214;28;20487;-53
2022/11/26 12:09:48;;;;;;;73.15;41.78;;;9.60;99.90;;;;;;5022458;28;20116;-50
2022/11/26 12:12:34;;;;;;;57.85;33.88;;;9.90;99.90;;;;;;5023132;28;20045;-52
2022/11/26 12:15:13;;;;;;;52.20;32.65;;;10.00;99.90;;;;;;5025709;28;20121;-52
2022/11/26 12:18:19;;;;;;;61.35;37.35;;;10.20;99.90;;;;;;5023017;28;20118;-51
2022/11/26 12:20:50;;;;;;;59.13;37.75;;;10.00;99.90;;;;;;5030710;28;20488;-52
2022/11/26 12:23:18;;;;;;;61.90;35.70;;;10.10;99.90;;;;;;5031259;28;20030;-53
2022/11/26 12:25:49;;;;;;;60.50;36.08;;;9.90;99.90;;;;;;5030700;28;20045;-53
2022/11/26 12:28:30;;;;;;;70.88;41.95;;;9.70;99.90;;;;;;5031451;28;20033;-53
2022/11/26 12:31:07;;;;;;;66.78;37.90;;;9.40;99.90;;;;;;5014118;28;20509;-52
2022/11/26 12:33:35;;;;;;;56.60;33.00;;;9.20;99.90;;;;;;5030737;28;20041;-52
2022/11/26 12:36:26;;;;;;;46.55;27.23;;;9.30;99.90;;;;;;4994249;28;20119;-52
2022/11/26 12:38:56;;;;;;;48.42;29.13;;;8.80;99.90;;;;;;5008456;28;20073;-52
2022/11/26 12:41:44;;;;;;;51.28;29.95;;;8.60;99.90;;;;;;4969178;28;20073;-52
2022/11/26 12:44:23;;;;;;;54.33;32.05;;;8.60;99.90;;;;;;5029117;28;20141;-54
2022/11/26 12:46:59;;;;;;;64.25;36.97;;;8.40;99.90;;;;;;5030923;28;20596;-52
2022/11/26 12:49:36;;;;;;;63.17;35.28;;;;;;;;;;5030218;28;20061;-52
2022/11/26 12:52:11;;;;;;;66.15;37.72;;;;;;;;;;5030671;28;20034;-53
2022/11/26 12:54:43;;;;;;;77.93;38.67;;;;;;;;;;5024881;28;20048;-53